Time;durP1;ratioP1;P1;durP2;ratioP2;P2;SDS_P1;SDS_P2;PMS_P1;PMS_P2;Temp;Humidity;BMP_temperature;BMP_pressure;BME280_temperature;BME280_humidity;BME280_pressure;Samples;Min_cycle;Max_cycle;Signal;HPM_P1;HPM_P2
2021/05/09 00:01:05;;;;;;;2.83;1.67;;;;;;;11.42;41.03;95282.63;2969030;40;20058;-69
2021/05/09 00:03:07;;;;;;;5.53;1.70;;;;;;;11.40;40.87;95279.31;2972210;39;20076;-69
2021/05/09 00:05:09;;;;;;;2.72;1.58;;;;;;;11.40;40.98;95287.19;2970243;39;20278;-70
2021/05/09 00:07:11;;;;;;;2.55;1.88;;;;;;;11.36;41.25;95287.66;2966599;39;20056;-69
2021/05/09 00:09:12;;;;;;;2.70;1.73;;;;;;;11.37;41.21;95291.91;2968892;39;20059;-69
2021/05/09 00:11:14;;;;;;;3.67;1.90;;;;;;;11.36;41.26;95288.47;2968529;39;20456;-69
2021/05/09 00:13:15;;;;;;;3.30;1.88;;;;;;;11.37;41.18;95286.66;2973768;39;20054;-69
2021/05/09 00:15:22;;;;;;;2.80;1.83;;;;;;;11.37;41.21;95289.28;2970303;39;20353;-69
2021/05/09 00:17:23;;;;;;;3.97;1.50;;;;;;;11.36;41.93;95288.47;2966026;40;20084;-70
2021/05/09 00:19:24;;;;;;;4.18;1.80;;;;;;;11.37;41.93;95287.47;2966988;40;20060;-69
2021/05/09 00:21:25;;;;;;;4.03;1.70;;;;;;;11.36;41.75;95274.53;2972487;39;20088;-70
2021/05/09 00:23:27;;;;;;;2.83;1.60;;;;;;;11.29;41.40;95276.91;2965967;40;20052;-69
2021/05/09 00:25:31;;;;;;;2.67;1.88;;;;;;;11.27;42.25;95278.84;2967449;40;20056;-70
2021/05/09 00:27:33;;;;;;;3.83;1.77;;;;;;;11.25;41.81;95280.81;2970024;39;20051;-69
2021/05/09 00:29:34;;;;;;;2.90;1.70;;;;;;;11.20;42.26;95272.56;2966189;40;20048;-69
2021/05/09 00:31:35;;;;;;;2.72;1.70;;;;;;;11.24;41.64;95273.91;2966053;40;20061;-69
2021/05/09 00:33:36;;;;;;;3.25;1.50;;;;;;;11.28;41.98;95270.03;2967076;40;20052;-69
2021/05/09 00:35:37;;;;;;;4.47;1.50;;;;;;;11.26;41.79;95264.09;2971371;39;20078;-81
2021/05/09 00:37:40;;;;;;;4.00;2.60;;;;;;;11.26;42.11;95266.72;2968173;39;20064;-80
2021/05/09 00:39:41;;;;;;;2.67;2.00;;;;;;;11.27;41.97;95270.97;2972099;39;20060;-79
2021/05/09 00:41:42;;;;;;;5.75;1.67;;;;;;;11.30;41.54;95268.06;2970719;39;20071;-81
2021/05/09 00:43:44;;;;;;;2.58;1.60;;;;;;;11.29;41.36;95269.03;2972063;39;20212;-80
2021/05/09 00:45:45;;;;;;;2.38;1.50;;;;;;;11.29;41.05;95266.41;2971861;39;20092;-79
2021/05/09 00:47:48;;;;;;;2.58;1.60;;;;;;;11.33;41.45;95277.44;2968553;39;20052;-81
2021/05/09 00:49:49;;;;;;;3.38;1.70;;;;;;;11.18;42.34;95264.84;2967936;40;20063;-81
2021/05/09 00:51:51;;;;;;;4.75;2.30;;;;;;;10.86;42.47;95268.78;2973707;39;20043;-80
2021/05/09 00:53:53;;;;;;;3.53;1.77;;;;;;;10.66;43.55;95275.09;2969658;39;20140;-81
2021/05/09 00:55:55;;;;;;;2.17;1.52;;;;;;;10.29;45.58;95277.69;2973746;39;20267;-81
2021/05/09 00:57:57;;;;;;;3.00;1.83;;;;;;;10.21;45.10;95273.97;2970222;39;20052;-81
2021/05/09 01:00:00;;;;;;;3.03;1.70;;;;;;;10.31;44.64;95278.41;2967255;39;20088;-81
2021/05/09 01:02:01;;;;;;;3.28;1.63;;;;;;;10.25;46.47;95283.19;2973680;39;20106;-81
2021/05/09 01:04:04;;;;;;;2.80;1.60;;;;;;;10.35;46.59;95282.41;2972715;40;20148;-82
2021/05/09 01:06:06;;;;;;;5.70;1.70;;;;;;;10.40;46.06;95288.03;2962161;40;20055;-81
2021/05/09 01:08:07;;;;;;;3.58;1.60;;;;;;;10.27;46.76;95295.34;2967961;40;20080;-82
2021/05/09 01:10:11;;;;;;;3.38;1.95;;;;;;;10.04;47.75;95293.88;2973563;39;20111;-81
2021/05/09 01:12:13;;;;;;;4.22;2.20;;;;;;;10.07;47.66;95295.38;2969862;40;20391;-81
2021/05/09 01:14:14;;;;;;;2.80;1.70;;;;;;;10.09;48.15;95284.75;2974146;40;20060;-79
2021/05/09 01:16:15;;;;;;;2.83;1.88;;;;;;;10.11;47.96;95293.28;2973677;39;20080;-81
2021/05/09 01:18:17;;;;;;;3.35;1.77;;;;;;;9.96;48.09;95295.53;2977699;39;20088;-82
2021/05/09 01:20:18;;;;;;;3.67;2.03;;;;;;;9.91;48.44;95295.94;2970093;39;20076;-80
2021/05/09 01:22:19;;;;;;;4.60;1.77;;;;;;;9.94;48.16;95292.25;2972748;40;20060;-81
2021/05/09 01:24:21;;;;;;;2.70;1.80;;;;;;;10.01;47.70;95286.31;2966900;40;20067;-80
2021/05/09 01:26:22;;;;;;;4.38;1.67;;;;;;;9.92;48.37;95288.94;2974945;39;20084;-80
2021/05/09 01:28:23;;;;;;;4.03;2.10;;;;;;;9.89;48.14;95286.59;2973070;39;20050;-82
2021/05/09 01:30:25;;;;;;;4.00;1.98;;;;;;;9.95;48.93;95289.47;2974493;39;20056;-81
2021/05/09 01:32:26;;;;;;;2.60;1.83;;;;;;;9.81;48.61;95284.69;2974444;39;20323;-82
2021/05/09 01:34:34;;;;;;;2.67;1.75;;;;;;;9.42;49.07;95292.53;2973626;40;20428;-82
2021/05/09 01:36:36;;;;;;;7.28;2.17;;;;;;;9.27;49.85;95293.91;2973265;39;20056;-82
2021/05/09 01:38:37;;;;;;;3.78;1.83;;;;;;;9.33;49.32;95291.56;2972294;39;20064;-81
2021/05/09 01:40:38;;;;;;;4.47;1.83;;;;;;;9.35;49.71;95300.09;2975200;39;20048;-83
2021/05/09 01:42:41;;;;;;;8.05;2.10;;;;;;;9.42;49.41;95295.16;2973864;39;20067;-81
2021/05/09 01:44:52;;;;;;;4.68;2.17;;;;;;;9.57;48.92;95293.81;2976491;39;20059;-80
2021/05/09 01:46:53;;;;;;;2.70;2.03;;;;;;;9.70;48.32;95290.91;2970002;40;20127;-81
2021/05/09 01:48:54;;;;;;;4.47;2.00;;;;;;;9.55;49.03;95297.50;2974988;39;20051;-82
2021/05/09 01:50:56;;;;;;;3.00;2.00;;;;;;;9.40;49.18;95302.34;2977125;39;20086;-81
2021/05/09 01:53:01;;;;;;;3.55;1.85;;;;;;;9.32;48.28;95300.41;2972934;39;20052;-81
2021/05/09 01:55:07;;;;;;;3.20;1.90;;;;;;;9.37;49.15;95307.81;2971482;39;20080;-80
2021/05/09 01:57:08;;;;;;;4.82;2.13;;;;;;;9.54;47.98;95308.94;2975376;39;20051;-82
2021/05/09 01:59:10;;;;;;;4.72;1.95;;;;;;;9.68;47.50;95299.84;2974126;39;20415;-79
2021/05/09 02:01:11;;;;;;;3.75;2.15;;;;;;;9.81;46.37;95300.41;2974368;39;20156;-81
2021/05/09 02:03:12;;;;;;;4.43;2.28;;;;;;;9.94;46.49;95302.72;2973763;39;20064;-81
2021/05/09 02:05:14;;;;;;;2.63;1.88;;;;;;;10.04;46.40;95303.50;2968744;39;20055;-81
2021/05/09 02:07:16;;;;;;;3.30;2.05;;;;;;;10.00;46.95;95310.00;2973939;39;20077;-70
2021/05/09 02:09:17;;;;;;;3.33;1.83;;;;;;;9.98;46.73;95310.16;2972043;39;20051;-70
2021/05/09 02:11:19;;;;;;;3.38;2.53;;;;;;;10.00;47.03;95307.38;2968799;39;20045;-69
2021/05/09 02:13:20;;;;;;;4.10;1.95;;;;;;;10.01;47.81;95307.25;2967414;40;20048;-68
2021/05/09 02:15:21;;;;;;;4.43;2.13;;;;;;;10.06;46.79;95309.44;2970991;39;20052;-70
2021/05/09 02:17:22;;;;;;;4.63;2.20;;;;;;;10.09;46.50;95309.16;2973671;39;20060;-69
2021/05/09 02:19:24;;;;;;;4.15;2.35;;;;;;;10.12;46.10;95310.66;2973969;39;20144;-81
2021/05/09 02:21:25;;;;;;;3.33;2.15;;;;;;;10.15;46.79;95311.22;2969268;40;20053;-82
2021/05/09 02:23:26;;;;;;;3.20;1.92;;;;;;;10.20;47.17;95310.78;2969454;40;20071;-80
2021/05/09 02:25:27;;;;;;;2.75;1.92;;;;;;;10.24;46.34;95309.56;2968668;40;20104;-81
2021/05/09 02:27:30;;;;;;;4.80;2.20;;;;;;;10.24;46.80;95315.59;2977292;39;20105;-81
2021/05/09 02:29:31;;;;;;;4.82;2.22;;;;;;;10.21;46.00;95313.25;2977526;39;20059;-80
2021/05/09 02:31:32;;;;;;;3.85;2.40;;;;;;;10.20;45.94;95316.84;2971302;39;20092;-82
2021/05/09 02:33:34;;;;;;;4.18;2.15;;;;;;;10.21;46.04;95309.81;2974746;39;20064;-81
2021/05/09 02:35:35;;;;;;;3.58;2.30;;;;;;;10.25;46.74;95313.81;2971895;39;20055;-79
2021/05/09 02:37:36;;;;;;;3.20;1.73;;;;;;;10.29;46.71;95311.75;2980042;39;20079;-80
2021/05/09 02:39:37;;;;;;;4.95;2.15;;;;;;;10.29;46.77;95315.22;2979979;39;20051;-80
2021/05/09 02:41:39;;;;;;;4.80;2.10;;;;;;;10.33;47.14;95313.13;2979046;39;20059;-79
2021/05/09 02:43:40;;;;;;;4.47;2.50;;;;;;;10.29;47.27;95315.22;2968825;40;20137;-81
2021/05/09 02:45:42;;;;;;;3.65;2.10;;;;;;;10.30;47.31;95318.66;2975443;39;20049;-80
2021/05/09 02:47:43;;;;;;;3.42;2.20;;;;;;;10.26;46.30;95328.56;2962536;40;20049;-81
2021/05/09 02:49:45;;;;;;;4.93;2.35;;;;;;;10.22;46.62;95319.34;2974536;39;20136;-80
2021/05/09 02:51:46;;;;;;;7.20;2.95;;;;;;;9.98;47.92;95320.63;2972596;40;20052;-80
2021/05/09 02:53:47;;;;;;;4.03;2.30;;;;;;;9.92;47.98;95323.78;2971435;39;20064;-79
2021/05/09 02:55:48;;;;;;;5.10;2.75;;;;;;;9.98;48.00;95328.47;2972294;40;20414;-83
2021/05/09 02:57:49;;;;;;;4.32;2.42;;;;;;;9.99;47.70;95330.09;2976058;39;20340;-82
2021/05/09 02:59:51;;;;;;;4.40;2.50;;;;;;;10.00;47.51;95333.53;2971900;39;20060;-81
2021/05/09 03:01:52;;;;;;;6.13;3.13;;;;;;;10.03;47.98;95333.28;2976338;39;20048;-81
2021/05/09 03:03:53;;;;;;;3.08;1.83;;;;;;;10.08;47.39;95333.69;2969800;39;20056;-81
2021/05/09 03:05:55;;;;;;;3.53;2.33;;;;;;;10.14;48.57;95338.34;2967792;40;20064;-80
2021/05/09 03:07:56;;;;;;;4.57;2.38;;;;;;;10.12;48.66;95340.28;2974405;39;20316;-80
2021/05/09 03:09:57;;;;;;;5.60;2.58;;;;;;;10.02;48.12;95339.47;2968496;40;20048;-82
2021/05/09 03:11:59;;;;;;;5.38;2.47;;;;;;;9.99;48.80;95343.19;2968747;40;20078;-81
2021/05/09 03:14:00;;;;;;;4.18;2.25;;;;;;;9.96;48.48;95343.50;2967890;39;20064;-82
2021/05/09 03:16:02;;;;;;;3.40;2.38;;;;;;;9.74;48.59;95341.16;2973621;39;20055;-81
2021/05/09 03:18:04;;;;;;;4.57;2.13;;;;;;;9.55;49.17;95350.66;2974552;39;20064;-80
2021/05/09 03:20:06;;;;;;;3.83;2.30;;;;;;;9.47;49.39;95344.47;2971681;39;20062;-81
2021/05/09 03:22:07;;;;;;;5.97;2.60;;;;;;;9.45;49.88;95346.38;2971143;39;20532;-81
2021/05/09 03:24:12;;;;;;;4.72;2.30;;;;;;;9.12;49.93;95353.59;2968369;40;20441;-81
2021/05/09 03:26:13;;;;;;;4.53;2.60;;;;;;;8.93;50.50;95355.22;2966800;40;20045;-82
2021/05/09 03:28:14;;;;;;;4.43;2.60;;;;;;;8.87;51.48;95354.91;2968362;40;20060;-82
2021/05/09 03:30:16;;;;;;;6.90;2.78;;;;;;;8.78;51.35;95354.75;2967035;39;20056;-80
2021/05/09 03:32:17;;;;;;;6.28;2.65;;;;;;;8.78;51.60;95353.94;2967508;39;20077;-83
2021/05/09 03:34:19;;;;;;;7.95;2.80;;;;;;;8.83;51.81;95362.19;2971917;39;20166;-82
2021/05/09 03:36:20;;;;;;;4.70;2.90;;;;;;;8.37;52.25;95363.47;2972272;39;20107;-80
2021/05/09 03:38:21;;;;;;;6.05;2.65;;;;;;;8.38;52.57;95363.31;2975507;39;20270;-81
2021/05/09 03:40:22;;;;;;;7.78;2.60;;;;;;;8.60;52.77;95354.53;2975125;39;20368;-82
2021/05/09 03:42:23;;;;;;;4.85;3.05;;;;;;;8.81;51.96;95366.72;2971925;39;20408;-81
2021/05/09 03:44:25;;;;;;;5.15;2.88;;;;;;;8.79;50.84;95358.19;2970185;39;20044;-81
2021/05/09 03:46:26;;;;;;;7.25;2.85;;;;;;;8.45;52.50;95371.50;2975398;39;20064;-78
2021/05/09 03:48:28;;;;;;;8.05;3.58;;;;;;;8.36;53.20;95380.06;2972681;39;20075;-81
2021/05/09 03:50:29;;;;;;;6.13;2.92;;;;;;;8.29;53.20;95384.97;2970228;40;20441;-81
2021/05/09 03:52:31;;;;;;;7.22;3.05;;;;;;;8.29;53.24;95382.38;2975235;39;20055;-79
2021/05/09 03:54:33;;;;;;;7.55;3.20;;;;;;;8.46;52.57;95386.22;2970465;39;20055;-82
2021/05/09 03:56:34;;;;;;;4.72;3.13;;;;;;;8.74;51.93;95386.50;2972076;39;20092;-82
2021/05/09 03:58:35;;;;;;;4.35;2.78;;;;;;;8.97;51.55;95380.13;2967989;39;20104;-83
2021/05/09 04:00:37;;;;;;;7.13;2.85;;;;;;;9.06;50.74;95388.94;2969938;39;20048;-81
2021/05/09 04:02:38;;;;;;;4.53;3.15;;;;;;;8.87;50.76;95392.31;2975786;39;20063;-82
2021/05/09 04:04:39;;;;;;;4.70;2.83;;;;;;;8.76;50.10;95395.03;2974658;39;20420;-81
2021/05/09 04:06:40;;;;;;;3.60;2.63;;;;;;;8.84;50.22;95386.50;2968771;40;20425;-82
2021/05/09 04:08:42;;;;;;;8.55;2.95;;;;;;;9.00;50.55;95390.28;2968482;40;20044;-82
2021/05/09 04:10:43;;;;;;;4.72;2.75;;;;;;;9.13;50.30;95389.25;2974905;39;20059;-79
2021/05/09 04:12:44;;;;;;;11.07;2.90;;;;;;;9.25;49.34;95390.81;2975815;39;20054;-81
2021/05/09 04:14:46;;;;;;;5.25;2.67;;;;;;;9.38;49.60;95395.78;2971250;39;20060;-81
2021/05/09 04:16:47;;;;;;;6.22;2.60;;;;;;;9.53;49.25;95390.97;2976959;39;20095;-82
2021/05/09 04:18:48;;;;;;;5.68;2.97;;;;;;;9.74;48.48;95399.53;2977476;39;20541;-81
2021/05/09 04:20:49;;;;;;;4.10;2.20;;;;;;;9.96;49.04;95389.75;2972063;39;20299;-81
2021/05/09 04:22:51;;;;;;;5.13;2.88;;;;;;;10.13;48.37;95393.47;2976293;39;20458;-79
2021/05/09 04:24:52;;;;;;;5.60;2.90;;;;;;;10.28;48.43;95399.91;2970931;39;20393;-81
2021/05/09 04:26:53;;;;;;;4.80;2.72;;;;;;;10.40;48.56;95396.22;2971519;40;20091;-82
2021/05/09 04:28:55;;;;;;;4.43;2.63;;;;;;;10.55;47.69;95399.22;2976836;39;20052;-83
2021/05/09 04:30:56;;;;;;;4.30;2.60;;;;;;;10.70;48.08;95410.09;2973939;39;20054;-82
2021/05/09 04:33:01;;;;;;;6.72;3.20;;;;;;;10.79;47.14;95405.78;2976128;39;20075;-80
2021/05/09 04:35:03;;;;;;;4.35;2.38;;;;;;;10.85;45.91;95406.03;2979972;39;20072;-81
2021/05/09 04:37:04;;;;;;;6.75;2.20;;;;;;;10.90;45.46;95404.78;2978858;39;20128;-82
2021/05/09 04:39:05;;;;;;;4.35;2.75;;;;;;;10.98;44.87;95415.38;2966606;40;20356;-80
2021/05/09 04:41:07;;;;;;;5.57;2.88;;;;;;;11.04;45.26;95412.19;2971185;39;20047;-82
2021/05/09 04:43:10;;;;;;;4.90;2.90;;;;;;;11.12;45.65;95414.06;2970714;39;20153;-82
2021/05/09 04:45:12;;;;;;;5.03;2.92;;;;;;;11.16;45.75;95424.13;2974066;39;20079;-81
2021/05/09 04:47:13;;;;;;;4.15;2.65;;;;;;;11.10;44.70;95422.09;2969012;39;20149;-80
2021/05/09 04:49:15;;;;;;;7.78;2.50;;;;;;;10.77;45.98;95433.94;2969219;40;20056;-82
2021/05/09 04:51:16;;;;;;;6.80;2.92;;;;;;;10.92;45.97;95429.88;2973993;39;20364;-69
2021/05/09 04:53:30;;;;;;;3.92;2.80;;;;;;;10.79;45.73;95427.56;2974336;39;20064;-81
2021/05/09 04:55:31;;;;;;;4.75;2.88;;;;;;;10.78;44.61;95431.16;2966804;40;20056;-81
2021/05/09 04:57:33;;;;;;;5.93;2.95;;;;;;;10.93;45.43;95422.88;2968623;40;20060;-82
2021/05/09 04:59:35;;;;;;;7.95;3.78;;;;;;;11.08;46.18;95437.16;2973602;39;20059;-80
2021/05/09 05:01:36;;;;;;;4.55;2.65;;;;;;;11.26;46.17;95430.16;2969921;40;20355;-83
2021/05/09 05:03:37;;;;;;;4.53;3.40;;;;;;;11.40;45.74;95431.47;2972112;40;20064;-81
2021/05/09 05:05:39;;;;;;;6.18;3.30;;;;;;;11.39;45.62;95427.19;2974480;39;20059;-82
2021/05/09 05:07:40;;;;;;;4.65;3.00;;;;;;;11.47;45.89;95427.28;2968195;39;20060;-82
2021/05/09 05:09:42;;;;;;;6.45;3.67;;;;;;;11.43;45.92;95420.69;2967978;40;20274;-81
2021/05/09 05:11:43;;;;;;;5.65;3.20;;;;;;;11.50;45.98;95425.34;2972525;39;20056;-81
2021/05/09 05:13:44;;;;;;;4.65;3.08;;;;;;;11.63;45.92;95426.63;2968864;39;20141;-82
2021/05/09 05:15:47;;;;;;;5.68;3.35;;;;;;;11.73;44.91;95416.09;2974006;39;20080;-82
2021/05/09 05:17:48;;;;;;;4.35;2.80;;;;;;;11.18;44.34;95421.38;2971625;39;20485;-69
2021/05/09 05:19:49;;;;;;;6.75;3.35;;;;;;;10.96;45.24;95431.25;2973031;39;20052;-69
2021/05/09 05:21:50;;;;;;;4.55;3.22;;;;;;;10.90;45.36;95429.19;2969334;40;20075;-72
2021/05/09 05:23:52;;;;;;;5.00;3.00;;;;;;;10.20;46.85;95429.44;2973614;39;20052;-72
2021/05/09 05:25:53;;;;;;;6.07;3.42;;;;;;;10.04;46.73;95437.00;2968912;39;20245;-70
2021/05/09 05:27:54;;;;;;;8.40;3.50;;;;;;;10.16;47.01;95435.91;2966703;40;20123;-71
2021/05/09 05:29:56;;;;;;;4.38;3.10;;;;;;;10.28;47.16;95441.81;2974171;39;20380;-81
2021/05/09 05:31:57;;;;;;;4.53;3.42;;;;;;;10.61;46.13;95437.97;2975606;39;20103;-81
2021/05/09 05:33:59;;;;;;;3.85;2.83;;;;;;;10.52;45.64;95446.69;2977203;39;20056;-81
2021/05/09 05:36:03;;;;;;;7.90;3.75;;;;;;;10.58;46.06;95445.28;2973053;39;20306;-81
2021/05/09 05:38:04;;;;;;;5.22;3.40;;;;;;;10.71;45.91;95450.22;2968099;40;20079;-84
2021/05/09 05:40:06;;;;;;;8.43;3.22;;;;;;;10.94;45.50;95448.91;2968105;40;20088;-81
2021/05/09 05:42:08;;;;;;;7.40;3.20;;;;;;;10.71;45.30;95452.84;2973765;39;20085;-82
2021/05/09 05:44:09;;;;;;;5.05;3.28;;;;;;;10.56;45.26;95455.06;2969852;39;20052;-81
2021/05/09 05:46:13;;;;;;;6.95;3.22;;;;;;;10.61;45.34;95461.56;2973063;39;20129;-81
2021/05/09 05:48:14;;;;;;;5.97;3.38;;;;;;;10.58;44.08;95461.84;2972846;39;20293;-83
2021/05/09 05:50:15;;;;;;;6.68;3.00;;;;;;;10.47;43.88;95456.72;2976995;39;20087;-82
2021/05/09 05:52:17;;;;;;;4.97;2.95;;;;;;;10.42;44.90;95456.34;2969313;39;20378;-81
2021/05/09 05:54:19;;;;;;;5.38;3.00;;;;;;;10.37;44.77;95451.53;2977166;39;20060;-81
2021/05/09 05:56:20;;;;;;;4.63;3.00;;;;;;;10.41;44.83;95459.91;2974428;39;20067;-83
2021/05/09 05:58:22;;;;;;;6.10;3.38;;;;;;;10.71;44.64;95455.44;2972972;39;20068;-80
2021/05/09 06:00:23;;;;;;;7.38;3.53;;;;;;;10.98;44.54;95463.38;2970913;39;20144;-80
2021/05/09 06:02:24;;;;;;;6.38;3.05;;;;;;;11.28;43.81;95458.88;2969735;40;20068;-81
2021/05/09 06:04:26;;;;;;;7.35;3.55;;;;;;;11.52;42.75;95454.91;2976916;39;20044;-81
2021/05/09 06:06:27;;;;;;;6.05;3.17;;;;;;;11.61;42.61;95451.38;2973568;39;20325;-81
2021/05/09 06:08:29;;;;;;;5.75;3.03;;;;;;;11.39;41.57;95461.31;2978529;39;20048;-80
2021/05/09 06:10:30;;;;;;;4.85;3.15;;;;;;;11.33;42.12;95459.25;2972017;39;20068;-81
2021/05/09 06:12:31;;;;;;;7.47;3.30;;;;;;;11.33;42.87;95459.25;2969186;40;20052;-81
2021/05/09 06:14:36;;;;;;;7.65;3.35;;;;;;;11.59;42.83;95458.56;2970734;40;20063;-80
2021/05/09 06:16:37;;;;;;;6.30;3.15;;;;;;;11.80;41.91;95458.31;2973486;39;20117;-71
2021/05/09 06:18:39;;;;;;;5.97;3.47;;;;;;;11.66;42.12;95460.47;2971710;39;20476;-70
2021/05/09 06:20:40;;;;;;;5.35;3.03;;;;;;;11.65;41.82;95452.75;2969955;39;20147;-71
2021/05/09 06:22:42;;;;;;;5.82;3.55;;;;;;;11.71;41.60;95451.34;2971896;39;20389;-69
2021/05/09 06:24:43;;;;;;;4.95;3.10;;;;;;;11.93;41.23;95468.50;2967747;39;20085;-70
2021/05/09 06:26:44;;;;;;;5.38;2.88;;;;;;;12.20;41.14;95460.56;2966213;40;20434;-71
2021/05/09 06:28:45;;;;;;;6.35;3.53;;;;;;;12.36;39.95;95465.13;2969483;39;20062;-69
2021/05/09 06:30:47;;;;;;;5.88;3.03;;;;;;;11.97;40.20;95465.44;2964975;40;20052;-81
2021/05/09 06:32:48;;;;;;;4.82;3.15;;;;;;;11.67;41.34;95461.31;2969045;39;20075;-81
2021/05/09 06:34:50;;;;;;;4.53;3.13;;;;;;;11.58;41.05;95465.63;2974934;39;20055;-82
2021/05/09 06:36:52;;;;;;;5.15;3.10;;;;;;;11.51;40.72;95464.56;2971380;39;20155;-86
2021/05/09 06:38:53;;;;;;;9.30;3.90;;;;;;;11.69;41.16;95469.84;2972673;40;20060;-82
2021/05/09 06:40:54;;;;;;;9.98;3.47;;;;;;;11.70;41.11;95471.50;2978281;39;20040;-81
2021/05/09 06:42:59;;;;;;;5.20;3.20;;;;;;;11.82;40.41;95472.94;2970758;40;20052;-82
2021/05/09 06:45:06;;;;;;;4.25;2.97;;;;;;;11.76;40.84;95477.97;2970064;40;20072;-85
2021/05/09 06:47:12;;;;;;;6.28;3.20;;;;;;;11.61;40.88;95475.00;2977885;40;20286;-84
2021/05/09 06:49:14;;;;;;;5.55;3.58;;;;;;;11.44;41.32;95472.19;2969678;40;20067;-85
2021/05/09 06:51:16;;;;;;;7.88;3.50;;;;;;;11.57;41.14;95485.00;2972136;40;20062;-83
2021/05/09 06:53:17;;;;;;;7.28;3.50;;;;;;;11.83;40.38;95479.88;2968682;40;20049;-81
2021/05/09 06:55:19;;;;;;;4.90;3.20;;;;;;;12.17;40.09;95479.22;2970983;40;20040;-81
2021/05/09 06:57:20;;;;;;;7.85;4.07;;;;;;;11.87;40.66;95475.97;2969578;40;20312;-80
2021/05/09 06:59:21;;;;;;;5.57;3.25;;;;;;;11.77;40.61;95477.81;2971449;39;20320;-82
2021/05/09 07:01:23;;;;;;;5.05;3.53;;;;;;;12.05;41.02;95477.81;2978146;39;20048;-81
2021/05/09 07:03:24;;;;;;;6.68;3.83;;;;;;;12.36;40.11;95480.06;2976168;39;20146;-83
2021/05/09 07:05:25;;;;;;;6.18;3.63;;;;;;;12.77;39.24;95478.59;2977439;39;20063;-82
2021/05/09 07:07:27;;;;;;;6.95;3.40;;;;;;;12.78;38.94;95474.19;2972433;40;20075;-84
2021/05/09 07:09:28;;;;;;;10.48;3.78;;;;;;;12.97;38.39;95476.59;2972951;40;20044;-82
2021/05/09 07:11:31;;;;;;;5.25;3.17;;;;;;;13.18;37.74;95486.75;2970773;40;20101;-80
2021/05/09 07:13:32;;;;;;;5.38;3.78;;;;;;;13.22;37.59;95476.75;2973798;40;20359;-82
2021/05/09 07:15:36;;;;;;;7.55;3.42;;;;;;;13.32;37.28;95482.75;2976762;39;20055;-81
2021/05/09 07:17:38;;;;;;;6.03;3.22;;;;;;;12.77;38.01;95478.59;2979848;39;20324;-82
2021/05/09 07:19:40;;;;;;;7.47;2.90;;;;;;;12.70;37.58;95475.75;2970373;40;20336;-81
2021/05/09 07:21:47;;;;;;;5.70;3.17;;;;;;;12.46;37.77;95472.94;2969612;39;20135;-82
2021/05/09 07:23:49;;;;;;;3.70;2.80;;;;;;;12.54;37.78;95472.16;2967641;40;20080;-82
2021/05/09 07:25:51;;;;;;;4.40;2.92;;;;;;;12.76;36.53;95476.94;2969270;40;20052;-82
2021/05/09 07:27:52;;;;;;;6.00;2.88;;;;;;;12.94;36.11;95481.34;2971540;40;20052;-81
2021/05/09 07:29:53;;;;;;;6.03;2.70;;;;;;;13.00;35.08;95478.09;2973234;39;20044;-81
2021/05/09 07:31:54;;;;;;;9.05;2.50;;;;;;;12.90;35.03;95471.13;2974296;39;20137;-70
2021/05/09 07:33:56;;;;;;;3.65;2.45;;;;;;;13.11;34.58;95472.56;2967146;40;20048;-70
2021/05/09 07:35:57;;;;;;;5.15;2.40;;;;;;;12.95;34.28;95475.09;2970293;39;20134;-70
2021/05/09 07:38:03;;;;;;;3.47;2.15;;;;;;;12.54;34.63;95478.28;2969865;39;20048;-70
2021/05/09 07:40:05;;;;;;;3.70;2.22;;;;;;;12.27;35.23;95471.28;2966232;40;20064;-72
2021/05/09 07:42:06;;;;;;;6.07;3.03;;;;;;;12.27;35.24;95485.25;2974056;39;20080;-70
2021/05/09 07:44:08;;;;;;;3.97;2.47;;;;;;;12.40;35.38;95477.00;2975340;39;20088;-69
2021/05/09 07:46:09;;;;;;;3.88;2.53;;;;;;;12.67;35.47;95480.50;2972029;39;20060;-70
2021/05/09 07:48:10;;;;;;;3.88;2.53;;;;;;;13.17;35.36;95479.84;2971387;39;20060;-70
2021/05/09 07:50:14;;;;;;;5.03;2.67;;;;;;;13.68;34.33;95470.25;2965678;40;20060;-70
2021/05/09 07:52:15;;;;;;;5.38;2.58;;;;;;;13.83;33.02;95475.72;2973292;39;20099;-71
2021/05/09 07:54:17;;;;;;;5.13;2.72;;;;;;;14.04;33.24;95471.81;2966930;39;20328;-79
2021/05/09 07:56:19;;;;;;;3.88;2.75;;;;;;;14.17;32.93;95473.97;2972855;39;20180;-81
2021/05/09 07:58:21;;;;;;;5.55;2.83;;;;;;;13.92;33.43;95476.56;2972684;40;20052;-81
2021/05/09 08:00:23;;;;;;;5.63;2.80;;;;;;;13.68;33.97;95472.03;2970123;39;20060;-82
2021/05/09 08:02:25;;;;;;;10.50;4.65;;;;;;;13.83;33.99;95465.19;2967649;39;20474;-83
2021/05/09 08:04:27;;;;;;;4.53;2.83;;;;;;;14.23;33.79;95468.88;2970767;40;20060;-81
2021/05/09 08:06:28;;;;;;;4.53;2.42;;;;;;;14.02;32.60;95468.53;2974245;39;20137;-83
2021/05/09 08:08:31;;;;;;;3.97;2.70;;;;;;;14.12;32.99;95462.13;2972438;39;20059;-80
2021/05/09 08:10:36;;;;;;;6.13;3.35;;;;;;;13.98;32.94;95467.19;2971833;39;20083;-81
2021/05/09 08:12:37;;;;;;;5.93;3.10;;;;;;;13.74;33.26;95463.50;2973747;39;20078;-81
2021/05/09 08:14:41;;;;;;;4.55;2.80;;;;;;;14.19;32.67;95464.94;2969099;40;20224;-80
2021/05/09 08:16:42;;;;;;;4.72;2.80;;;;;;;14.64;31.94;95468.94;2969838;39;20084;-83
2021/05/09 08:18:44;;;;;;;3.63;2.35;;;;;;;14.94;31.25;95461.34;2973347;39;20056;-80
2021/05/09 08:20:45;;;;;;;5.38;2.35;;;;;;;15.24;31.32;95470.34;2971867;39;20145;-81
2021/05/09 08:22:47;;;;;;;7.45;2.40;;;;;;;15.58;30.95;95463.97;2970954;40;20064;-83
2021/05/09 08:24:48;;;;;;;6.05;2.38;;;;;;;15.77;30.18;95460.94;2970867;40;20067;-84
2021/05/09 08:26:49;;;;;;;5.35;2.95;;;;;;;15.56;30.48;95464.16;2968451;40;20048;-82
2021/05/09 08:28:50;;;;;;;3.80;2.25;;;;;;;15.39;30.05;95461.75;2969508;39;20425;-82
2021/05/09 08:30:52;;;;;;;14.00;6.45;;;;;;;15.43;28.94;95469.16;2967423;40;20056;-79
2021/05/09 08:32:53;;;;;;;13.00;7.75;;;;;;;15.75;27.62;95457.66;2972071;39;20405;-81
2021/05/09 08:34:55;;;;;;;5.03;2.50;;;;;;;15.48;27.20;95463.34;2976310;39;20123;-81
2021/05/09 08:36:56;;;;;;;7.22;2.90;;;;;;;15.52;28.01;95468.13;2974500;39;20441;-81
2021/05/09 08:38:57;;;;;;;3.05;1.98;;;;;;;15.68;26.74;95463.75;2967241;40;20067;-83
2021/05/09 08:40:59;;;;;;;31.02;13.65;;;;;;;15.35;25.98;95461.25;2969739;39;20051;-81
2021/05/09 08:43:00;;;;;;;4.85;2.08;;;;;;;15.53;26.47;95459.22;2971879;39;20052;-82
2021/05/09 08:45:02;;;;;;;11.95;2.83;;;;;;;15.87;26.86;95465.19;2968400;39;20377;-84
2021/05/09 08:47:03;;;;;;;13.80;3.20;;;;;;;16.18;27.11;95465.19;2974006;39;20067;-80
2021/05/09 08:49:05;;;;;;;11.23;3.72;;;;;;;16.26;27.79;95465.16;2967795;40;20067;-82
2021/05/09 08:51:06;;;;;;;16.55;4.22;;;;;;;16.59;27.07;95465.72;2974709;39;20152;-82
2021/05/09 08:53:07;;;;;;;4.97;1.95;;;;;;;16.75;26.55;95456.81;2970662;39;20441;-81
2021/05/09 08:55:11;;;;;;;4.50;1.73;;;;;;;16.27;26.35;95461.50;2973680;39;20077;-82
2021/05/09 08:57:13;;;;;;;4.38;1.90;;;;;;;16.14;26.68;95461.25;2974679;39;20063;-82
2021/05/09 08:59:24;;;;;;;3.33;1.77;;;;;;;16.01;26.51;95461.00;2973930;39;20060;-83
2021/05/09 09:01:30;;;;;;;5.03;2.15;;;;;;;16.23;27.00;95449.63;2967724;40;20082;-84
2021/05/09 09:03:34;;;;;;;3.53;1.70;;;;;;;16.49;27.35;95448.44;2958695;40;20142;-70
2021/05/09 09:05:41;;;;;;;5.25;1.60;;;;;;;16.44;27.11;95442.88;2973151;39;20088;-69
2021/05/09 09:07:53;;;;;;;3.20;1.60;;;;;;;15.97;26.64;95450.78;2966683;39;20056;-72
2021/05/09 09:09:54;;;;;;;3.67;1.58;;;;;;;15.35;27.34;95453.31;2973435;39;20055;-70
2021/05/09 09:11:56;;;;;;;3.28;1.60;;;;;;;15.60;27.60;95440.06;2974238;39;20346;-70
2021/05/09 09:14:09;;;;;;;5.68;1.80;;;;;;;15.93;27.29;95441.53;2969105;39;20088;-70
2021/05/09 09:16:15;;;;;;;5.05;1.65;;;;;;;15.64;28.06;95431.59;2966212;40;20137;-71
2021/05/09 09:18:42;;;;;;;2.53;1.50;;;;;;;15.89;28.71;95442.06;2968517;39;20128;-70
2021/05/09 09:20:45;;;;;;;2.75;1.42;;;;;;;16.35;28.54;95435.00;2969509;39;20064;-73
2021/05/09 09:22:53;;;;;;;3.63;1.60;;;;;;;16.85;27.93;95435.44;2965690;39;20056;-71
2021/05/09 09:25:06;;;;;;;3.75;1.80;;;;;;;17.19;28.16;95434.94;2972741;39;20080;-70
2021/05/09 09:27:08;;;;;;;3.15;1.45;;;;;;;17.55;27.17;95438.66;2968034;40;20121;-70
2021/05/09 09:29:24;;;;;;;7.05;1.95;;;;;;;17.76;27.18;95433.44;2967145;40;20354;-70
2021/05/09 09:31:42;;;;;;;6.70;2.13;;;;;;;18.03;27.58;95431.13;2973626;39;20056;-71
2021/05/09 09:33:50;;;;;;;2.78;1.60;;;;;;;18.20;27.51;95427.22;2973207;39;20058;-72
2021/05/09 09:36:18;;;;;;;2.70;1.67;;;;;;;18.42;26.41;95424.59;2968098;39;20471;-71